createdAt,value
2023-05-10T00:00:47.465Z,324.00
2023-05-10T00:01:47.470Z,324.00
2023-05-10T00:02:47.562Z,325.00
2023-05-10T00:03:47.546Z,324.00
2023-05-10T00:04:47.524Z,325.00
2023-05-10T00:05:47.538Z,324.00
2023-05-10T00:06:47.530Z,323.00
2023-05-10T00:07:47.542Z,324.00
2023-05-10T00:08:47.546Z,323.00
2023-05-10T00:09:47.537Z,322.00
2023-05-10T00:10:47.554Z,320.00
2023-05-10T00:11:47.571Z,320.00
2023-05-10T00:12:47.620Z,317.00
2023-05-10T00:13:47.581Z,317.00
2023-05-10T00:14:47.611Z,319.00
2023-05-10T00:15:47.616Z,320.00
2023-05-10T00:16:47.670Z,328.00
2023-05-10T00:17:47.664Z,328.00
2023-05-10T00:18:47.641Z,326.00
2023-05-10T00:19:47.644Z,325.00
2023-05-10T00:20:47.692Z,326.00
2023-05-10T00:21:47.716Z,324.00
2023-05-10T00:22:47.774Z,321.00
2023-05-10T00:23:47.768Z,322.00
2023-05-10T00:24:47.796Z,321.00
2023-05-10T00:25:47.839Z,319.00
2023-05-10T00:26:47.873Z,324.00
2023-05-10T00:27:47.928Z,326.00
2023-05-10T00:28:47.947Z,325.00
2023-05-10T00:29:47.984Z,322.00
2023-05-10T00:30:48.028Z,321.00
2023-05-10T00:31:48.115Z,321.00
2023-05-10T00:32:48.127Z,323.00
2023-05-10T00:33:48.147Z,323.00
2023-05-10T00:34:48.161Z,323.00
2023-05-10T00:35:48.202Z,323.00
2023-05-10T00:36:48.233Z,323.00
2023-05-10T00:37:48.269Z,323.00
2023-05-10T00:38:48.366Z,326.00
2023-05-10T00:39:48.313Z,325.00
2023-05-10T00:40:48.361Z,324.00
2023-05-10T00:41:48.389Z,323.00
2023-05-10T00:42:48.413Z,322.00
2023-05-10T00:43:48.448Z,322.00
2023-05-10T00:44:48.482Z,321.00
2023-05-10T00:45:48.544Z,324.00
2023-05-10T00:46:48.561Z,325.00
2023-05-10T00:47:48.616Z,323.00
2023-05-10T00:48:48.589Z,323.00
2023-05-10T00:49:48.573Z,321.00
2023-05-10T00:50:48.584Z,319.00
2023-05-10T00:51:48.597Z,320.00
2023-05-10T00:52:48.605Z,318.00
2023-05-10T00:53:48.647Z,319.00
2023-05-10T00:54:48.665Z,317.00
2023-05-10T00:55:48.692Z,316.00
2023-05-10T00:56:48.644Z,317.00
2023-05-10T00:57:48.650Z,317.00
2023-05-10T00:58:48.674Z,317.00
2023-05-10T00:59:48.676Z,314.00
2023-05-10T01:00:48.694Z,313.00
2023-05-10T01:01:48.788Z,313.00
2023-05-10T01:02:48.821Z,313.00
2023-05-10T01:03:48.731Z,314.00
2023-05-10T01:04:48.776Z,314.00
2023-05-10T01:05:48.759Z,316.00
2023-05-10T01:06:48.775Z,317.00
2023-05-10T01:07:48.791Z,315.00
2023-05-10T01:08:48.832Z,317.00
2023-05-10T01:09:48.853Z,316.00
2023-05-10T01:10:48.913Z,314.00
2023-05-10T01:11:48.929Z,317.00
2023-05-10T01:12:48.986Z,316.00
2023-05-10T01:13:49.013Z,314.00
2023-05-10T01:14:49.050Z,314.00
2023-05-10T01:15:49.106Z,314.00
2023-05-10T01:16:49.136Z,313.00
2023-05-10T01:17:49.231Z,313.00
2023-05-10T01:18:49.200Z,314.00
2023-05-10T01:19:49.230Z,313.00
2023-05-10T01:20:49.268Z,313.00
2023-05-10T01:21:49.319Z,314.00
2023-05-10T01:22:49.381Z,314.00
2023-05-10T01:23:49.393Z,316.00
2023-05-10T01:24:49.427Z,314.00
2023-05-10T01:25:49.463Z,312.00
2023-05-10T01:26:49.512Z,315.00
2023-05-10T01:27:49.528Z,315.00
2023-05-10T01:28:49.599Z,317.00
2023-05-10T01:29:55.726Z,318.00
2023-05-10T01:30:50.621Z,320.00
2023-05-10T01:31:49.729Z,319.00
2023-05-10T01:32:49.685Z,317.00
2023-05-10T01:33:49.655Z,317.00
2023-05-10T01:34:49.667Z,316.00
2023-05-10T01:35:49.738Z,316.00
2023-05-10T01:36:49.701Z,315.00
2023-05-10T01:37:49.698Z,317.00
2023-05-10T01:38:49.711Z,316.00
2023-05-10T01:39:49.709Z,316.00
2023-05-10T01:40:49.732Z,315.00
2023-05-10T01:41:49.738Z,316.00
2023-05-10T01:42:49.769Z,316.00
2023-05-10T01:43:49.749Z,318.00
2023-05-10T01:44:49.783Z,318.00
2023-05-10T01:45:49.776Z,319.00
2023-05-10T01:46:49.794Z,318.00
2023-05-10T01:47:49.820Z,316.00
2023-05-10T01:48:49.795Z,313.00
2023-05-10T01:49:49.791Z,315.00
2023-05-10T01:50:49.794Z,316.00
2023-05-10T01:51:49.827Z,317.00
2023-05-10T01:52:49.821Z,319.00
2023-05-10T01:53:49.832Z,318.00
2023-05-10T01:54:49.843Z,319.00
2023-05-10T01:55:49.855Z,319.00
2023-05-10T01:56:49.867Z,318.00
2023-05-10T01:57:49.849Z,320.00
2023-05-10T01:58:49.873Z,320.00
2023-05-10T01:59:49.896Z,322.00
2023-05-10T02:00:49.995Z,320.00
2023-05-10T02:01:49.971Z,321.00
2023-05-10T02:02:50.078Z,319.00
2023-05-10T02:03:50.139Z,317.00
2023-05-10T02:04:50.097Z,314.00
2023-05-10T02:05:50.140Z,316.00
2023-05-10T02:06:50.162Z,317.00
2023-05-10T02:07:50.239Z,316.00
2023-05-10T02:08:50.264Z,313.00
2023-05-10T02:09:50.298Z,312.00
2023-05-10T02:10:50.331Z,311.00
2023-05-10T02:11:50.393Z,310.00
2023-05-10T02:12:50.531Z,309.00
2023-05-10T02:13:50.476Z,306.00
2023-05-10T02:14:50.512Z,304.00
2023-05-10T02:15:50.596Z,305.00
2023-05-10T02:16:50.666Z,307.00
2023-05-10T02:17:50.796Z,310.00
2023-05-10T02:18:50.720Z,309.00
2023-05-10T02:19:50.761Z,309.00
2023-05-10T02:20:50.779Z,307.00
2023-05-10T02:21:50.824Z,309.00
2023-05-10T02:22:50.872Z,311.00
2023-05-10T02:23:50.940Z,308.00
2023-05-10T02:24:50.927Z,310.00
2023-05-10T02:25:50.928Z,311.00
2023-05-10T02:26:50.932Z,313.00
2023-05-10T02:27:50.947Z,310.00
2023-05-10T02:28:50.949Z,311.00
2023-05-10T02:29:50.982Z,312.00
2023-05-10T02:30:50.965Z,310.00
2023-05-10T02:31:51.017Z,310.00
2023-05-10T02:32:51.036Z,311.00
2023-05-10T02:33:51.024Z,311.00
2023-05-10T02:34:51.057Z,312.00
2023-05-10T02:35:51.014Z,312.00
2023-05-10T02:36:51.045Z,312.00
2023-05-10T02:37:51.048Z,310.00
2023-05-10T02:38:51.061Z,311.00
2023-05-10T02:39:51.075Z,314.00
2023-05-10T02:40:51.080Z,313.00
2023-05-10T02:41:51.079Z,310.00
2023-05-10T02:42:51.097Z,307.00
2023-05-10T02:43:51.112Z,309.00
2023-05-10T02:44:51.105Z,308.00
2023-05-10T02:45:51.169Z,307.00
2023-05-10T02:46:51.116Z,306.00
2023-05-10T02:47:51.132Z,306.00
2023-05-10T02:48:51.125Z,309.00
2023-05-10T02:49:51.164Z,309.00
2023-05-10T02:50:51.150Z,309.00
2023-05-10T02:51:51.154Z,309.00
2023-05-10T02:52:51.157Z,308.00
2023-05-10T02:53:51.182Z,305.00
2023-05-10T02:54:51.183Z,306.00
2023-05-10T02:55:51.198Z,304.00
2023-05-10T02:56:51.197Z,306.00
2023-05-10T02:57:51.204Z,308.00
2023-05-10T02:58:51.236Z,308.00
2023-05-10T02:59:51.224Z,305.00
2023-05-10T03:00:51.275Z,305.00
2023-05-10T03:01:51.364Z,305.00
2023-05-10T03:02:51.387Z,302.00
2023-05-10T03:03:51.376Z,303.00
2023-05-10T03:04:51.480Z,304.00
2023-05-10T03:05:51.417Z,304.00
2023-05-10T03:06:51.611Z,308.00
2023-05-10T03:07:51.418Z,311.00
2023-05-10T03:08:51.398Z,310.00
2023-05-10T03:09:51.395Z,309.00
2023-05-10T03:10:51.408Z,310.00
2023-05-10T03:11:51.404Z,309.00
2023-05-10T03:12:51.454Z,305.00
2023-05-10T03:13:51.436Z,302.00
2023-05-10T03:14:51.449Z,298.00
2023-05-10T03:15:51.456Z,298.00
2023-05-10T03:16:51.436Z,299.00
2023-05-10T03:17:51.496Z,299.00
2023-05-10T03:18:51.517Z,300.00
2023-05-10T03:19:51.589Z,302.00
2023-05-10T03:20:51.611Z,301.00
2023-05-10T03:21:51.654Z,300.00
2023-05-10T03:22:51.681Z,300.00
2023-05-10T03:23:51.737Z,299.00
2023-05-10T03:24:51.783Z,300.00
2023-05-10T03:25:51.788Z,300.00
2023-05-10T03:26:51.779Z,304.00
2023-05-10T03:27:51.788Z,304.00
2023-05-10T03:28:51.798Z,305.00
2023-05-10T03:29:51.801Z,305.00
2023-05-10T03:30:51.802Z,305.00
2023-05-10T03:33:10.910Z,313.00
2023-05-10T03:34:10.888Z,308.00
2023-05-10T03:35:10.890Z,307.00
2023-05-10T03:36:10.910Z,309.00
2023-05-10T03:37:10.897Z,308.00
2023-05-10T03:38:10.889Z,308.00
2023-05-10T03:39:10.883Z,307.00
2023-05-10T03:40:10.872Z,310.00
2023-05-10T03:41:10.873Z,310.00
2023-05-10T03:42:10.912Z,310.00
2023-05-10T03:43:10.899Z,311.00
2023-05-10T03:44:10.887Z,312.00
2023-05-10T03:45:10.915Z,311.00
2023-05-10T03:46:10.983Z,312.00
2023-05-10T03:47:10.908Z,312.00
2023-05-10T03:48:10.986Z,314.00
2023-05-10T03:49:10.907Z,311.00
2023-05-10T03:50:10.918Z,311.00
2023-05-10T03:51:10.915Z,310.00
2023-05-10T03:52:10.905Z,312.00
2023-05-10T03:53:10.897Z,313.00
2023-05-10T03:54:10.953Z,312.00
2023-05-10T03:55:10.884Z,310.00
2023-05-10T03:56:10.910Z,311.00
2023-05-10T03:57:10.880Z,309.00
2023-05-10T03:58:10.869Z,307.00
2023-05-10T03:59:10.878Z,307.00
2023-05-10T04:00:10.870Z,311.00
2023-05-10T04:01:10.859Z,313.00
2023-05-10T04:02:10.917Z,313.00
2023-05-10T04:03:10.894Z,312.00
2023-05-10T04:04:10.922Z,311.00
2023-05-10T04:05:10.830Z,309.00
2023-05-10T04:06:10.843Z,310.00
2023-05-10T04:07:10.829Z,309.00
2023-05-10T04:08:10.824Z,309.00
2023-05-10T04:09:10.827Z,308.00
2023-05-10T04:10:10.813Z,307.00
2023-05-10T04:11:10.806Z,306.00
2023-05-10T04:12:11.105Z,307.00
2023-05-10T04:13:10.816Z,306.00
2023-05-10T04:14:10.806Z,305.00
2023-05-10T04:15:10.842Z,305.00
2023-05-10T04:16:10.886Z,305.00
2023-05-10T04:17:10.960Z,306.00
2023-05-10T04:18:11.094Z,304.00
2023-05-10T04:19:11.070Z,303.00
2023-05-10T04:20:11.117Z,305.00
2023-05-10T04:21:11.189Z,305.00
2023-05-10T04:22:11.226Z,305.00
2023-05-10T04:23:11.326Z,304.00
2023-05-10T04:24:11.983Z,306.00
2023-05-10T04:25:11.365Z,306.00
2023-05-10T04:26:11.407Z,309.00
2023-05-10T04:27:11.472Z,308.00
2023-05-10T04:28:11.503Z,309.00
2023-05-10T04:29:11.508Z,309.00
2023-05-10T04:30:11.517Z,309.00
2023-05-10T04:31:11.556Z,306.00
2023-05-10T04:32:11.491Z,303.00
2023-05-10T04:33:11.495Z,303.00
2023-05-10T04:34:11.496Z,300.00
2023-05-10T04:35:11.494Z,299.00
2023-05-10T04:36:11.486Z,300.00
2023-05-10T04:37:11.484Z,300.00
2023-05-10T04:38:11.479Z,301.00
2023-05-10T04:39:11.486Z,303.00
2023-05-10T04:40:11.484Z,301.00
2023-05-10T04:41:11.511Z,301.00
2023-05-10T04:42:11.464Z,302.00
2023-05-10T04:43:11.466Z,302.00
2023-05-10T04:44:11.473Z,305.00
2023-05-10T04:45:11.444Z,304.00
2023-05-10T04:46:11.490Z,304.00
2023-05-10T04:47:12.785Z,307.00
2023-05-10T04:48:11.435Z,308.00
2023-05-10T04:49:11.465Z,307.00
2023-05-10T04:50:11.415Z,306.00
2023-05-10T04:51:11.412Z,305.00
2023-05-10T04:52:11.410Z,306.00
2023-05-10T04:53:11.410Z,308.00
2023-05-10T04:54:11.497Z,310.00
2023-05-10T04:55:11.431Z,307.00
2023-05-10T04:56:11.412Z,307.00
2023-05-10T04:57:11.390Z,307.00
2023-05-10T04:58:11.387Z,307.00
2023-05-10T04:59:11.398Z,307.00
2023-05-10T05:00:11.426Z,305.00
2023-05-10T05:01:11.528Z,307.00
2023-05-10T05:02:11.526Z,311.00
2023-05-10T05:03:11.668Z,309.00
2023-05-10T05:04:11.649Z,311.00
2023-05-10T05:05:11.698Z,309.00
2023-05-10T05:06:11.776Z,309.00
2023-05-10T05:07:11.789Z,310.00
2023-05-10T05:08:11.837Z,312.00
2023-05-10T05:09:11.880Z,314.00
2023-05-10T05:10:11.950Z,311.00
2023-05-10T05:11:11.984Z,312.00
2023-05-10T05:12:12.062Z,311.00
2023-05-10T05:13:12.101Z,309.00
2023-05-10T05:14:12.170Z,309.00
2023-05-10T05:15:12.211Z,310.00
2023-05-10T05:16:12.453Z,308.00
2023-05-10T05:17:12.347Z,307.00
2023-05-10T05:18:12.464Z,308.00
2023-05-10T05:19:12.456Z,309.00
2023-05-10T05:20:12.564Z,311.00
2023-05-10T05:21:12.573Z,312.00
2023-05-10T05:22:12.629Z,312.00
2023-05-10T05:23:12.693Z,313.00
2023-05-10T05:24:12.794Z,313.00
2023-05-10T05:25:12.829Z,313.00
2023-05-10T05:26:12.808Z,314.00
2023-05-10T05:27:12.810Z,311.00
2023-05-10T05:28:12.814Z,311.00
2023-05-10T05:29:12.872Z,312.00
2023-05-10T05:30:12.844Z,312.00
2023-05-10T05:31:13.074Z,312.00
2023-05-10T05:32:12.894Z,357.00
2023-05-10T05:33:12.841Z,370.00
2023-05-10T05:34:12.852Z,363.00
2023-05-10T05:35:12.809Z,376.00
2023-05-10T05:36:12.859Z,404.00
2023-05-10T05:37:12.924Z,417.00
2023-05-10T05:38:12.948Z,427.00
2023-05-10T05:39:13.003Z,436.00
2023-05-10T05:40:13.029Z,445.00
2023-05-10T05:41:13.085Z,449.00
2023-05-10T05:42:13.085Z,470.00
2023-05-10T05:43:13.156Z,482.00
2023-05-10T05:44:13.140Z,485.00
2023-05-10T05:45:13.171Z,488.00
2023-05-10T05:46:13.201Z,496.00
2023-05-10T05:47:13.195Z,497.00
2023-05-10T05:48:13.221Z,497.00
2023-05-10T05:49:13.231Z,519.00
2023-05-10T05:50:13.232Z,528.00
2023-05-10T05:51:13.222Z,546.00
2023-05-10T05:52:13.263Z,550.00
2023-05-10T05:53:13.261Z,550.00
2023-05-10T05:54:13.262Z,563.00
2023-05-10T05:55:13.259Z,601.00
2023-05-10T05:56:13.240Z,618.00
2023-05-10T05:57:13.231Z,638.00
2023-05-10T05:58:13.228Z,663.00
2023-05-10T05:59:13.208Z,709.00
2023-05-10T06:00:13.734Z,726.00
2023-05-10T06:01:13.216Z,739.00
2023-05-10T06:02:13.300Z,762.00
2023-05-10T06:03:13.319Z,781.00
2023-05-10T06:04:13.282Z,860.00
2023-05-10T06:05:13.180Z,877.00
2023-05-10T06:06:13.170Z,891.00
2023-05-10T06:07:13.177Z,898.00
2023-05-10T06:08:13.148Z,953.00
2023-05-10T06:09:13.157Z,944.00
2023-05-10T06:10:13.123Z,947.00
2023-05-10T06:11:13.120Z,954.00
2023-05-10T06:12:13.129Z,981.00
2023-05-10T06:13:13.152Z,1011.00
2023-05-10T06:14:13.108Z,1027.00
2023-05-10T06:15:13.134Z,1057.00
2023-05-10T06:16:13.072Z,1077.00
2023-05-10T06:17:13.057Z,1121.00
2023-05-10T06:18:13.161Z,1135.00
2023-05-10T06:19:13.032Z,1152.00
2023-05-10T06:20:13.069Z,1161.00
2023-05-10T06:21:13.096Z,1177.00
2023-05-10T06:22:13.139Z,1205.00
2023-05-10T06:23:13.167Z,1211.00
2023-05-10T06:24:13.205Z,1232.00
2023-05-10T06:25:13.262Z,1241.00
2023-05-10T06:26:13.257Z,1242.00
2023-05-10T06:27:14.138Z,1260.00
2023-05-10T06:28:13.276Z,1299.00
2023-05-10T06:29:13.237Z,1328.00
2023-05-10T06:30:13.802Z,1348.00
2023-05-10T06:31:13.265Z,1357.00
2023-05-10T06:32:13.217Z,1360.00
2023-05-10T06:33:13.198Z,1360.00
2023-05-10T06:34:13.160Z,1407.00
2023-05-10T06:35:13.152Z,1413.00
2023-05-10T06:36:13.153Z,1429.00
2023-05-10T06:37:13.139Z,1440.00
2023-05-10T06:38:13.099Z,1447.00
2023-05-10T06:39:13.075Z,1464.00
2023-05-10T06:40:13.099Z,1477.00
2023-05-10T06:41:13.040Z,1536.00
2023-05-10T06:42:13.038Z,1505.00
2023-05-10T06:43:13.012Z,1509.00
2023-05-10T06:44:13.110Z,1493.00
2023-05-10T06:45:12.971Z,1514.00
2023-05-10T06:46:12.969Z,1625.00
2023-05-10T06:47:12.921Z,1640.00
2023-05-10T06:48:13.024Z,1652.00
2023-05-10T06:49:12.920Z,1783.00
2023-05-10T06:50:12.997Z,1701.00
2023-05-10T06:51:12.898Z,1691.00
2023-05-10T06:52:12.844Z,1633.00
2023-05-10T06:53:12.877Z,1681.00
2023-05-10T06:54:12.861Z,1611.00
2023-05-10T06:55:12.810Z,1606.00
2023-05-10T06:56:12.815Z,1599.00
2023-05-10T06:57:23.262Z,1586.00
2023-05-10T06:58:13.772Z,1566.00
2023-05-10T06:59:12.796Z,1544.00
2023-05-10T07:00:12.850Z,1550.00
2023-05-10T07:01:12.792Z,1546.00
2023-05-10T07:02:12.782Z,1546.00
2023-05-10T07:03:12.864Z,1548.00
2023-05-10T07:04:12.668Z,1549.00
2023-05-10T07:05:12.654Z,1538.00
2023-05-10T07:06:21.599Z,1496.00
2023-05-10T07:07:13.651Z,1502.00
2023-05-10T07:08:12.598Z,1660.00
2023-05-10T07:09:12.600Z,1623.00
2023-05-10T07:10:12.566Z,1514.00
2023-05-10T07:11:12.539Z,1499.00
2023-05-10T07:12:14.745Z,1521.00
2023-05-10T07:13:12.681Z,1591.00
2023-05-10T07:14:12.669Z,1634.00
2023-05-10T07:15:13.228Z,1630.00
2023-05-10T07:16:12.548Z,1534.00
2023-05-10T07:17:12.540Z,1551.00
2023-05-10T07:18:12.498Z,1462.00
2023-05-10T07:19:13.402Z,1459.00
2023-05-10T07:20:12.417Z,1529.00
2023-05-10T07:21:12.399Z,1519.00
2023-05-10T07:22:12.346Z,1400.00
2023-05-10T07:23:13.167Z,1417.00
2023-05-10T07:24:12.333Z,1419.00
2023-05-10T07:25:12.367Z,1423.00
2023-05-10T07:26:12.335Z,1424.00
2023-05-10T07:27:12.298Z,1425.00
2023-05-10T07:28:12.257Z,1428.00
2023-05-10T07:29:12.227Z,1425.00
2023-05-10T07:30:12.224Z,1418.00
2023-05-10T07:31:12.215Z,1415.00
2023-05-10T07:32:12.217Z,1408.00
2023-05-10T07:33:12.266Z,1392.00
2023-05-10T07:34:12.206Z,1387.00
2023-05-10T07:35:12.178Z,1361.00
2023-05-10T07:36:12.176Z,1339.00
2023-05-10T07:37:12.164Z,1195.00
2023-05-10T07:38:12.202Z,1194.00
2023-05-10T07:39:16.258Z,1202.00
2023-05-10T07:40:12.196Z,896.00
2023-05-10T07:41:12.106Z,484.00
2023-05-10T07:42:12.150Z,677.00
2023-05-10T07:43:12.133Z,659.00
2023-05-10T07:44:12.100Z,613.00
2023-05-10T07:45:12.110Z,617.00
2023-05-10T07:46:12.190Z,609.00
2023-05-10T07:47:12.131Z,667.00
2023-05-10T07:48:12.112Z,676.00
2023-05-10T07:49:12.116Z,594.00
2023-05-10T07:50:12.078Z,567.00
2023-05-10T07:51:12.085Z,571.00
2023-05-10T07:52:12.095Z,675.00
2023-05-10T07:53:12.113Z,762.00
2023-05-10T07:54:12.105Z,782.00
2023-05-10T07:55:12.077Z,789.00
2023-05-10T07:56:12.075Z,791.00
2023-05-10T07:57:12.110Z,797.00
2023-05-10T07:58:12.030Z,846.00
2023-05-10T07:59:12.880Z,853.00
2023-05-10T08:00:12.029Z,856.00
2023-05-10T08:01:12.028Z,858.00
2023-05-10T08:02:12.123Z,800.00
2023-05-10T08:03:12.302Z,773.00
2023-05-10T08:04:12.164Z,710.00
2023-05-10T08:05:12.208Z,713.00
2023-05-10T08:06:12.129Z,687.00
2023-05-10T08:07:12.110Z,673.00
2023-05-10T08:08:12.176Z,618.00
2023-05-10T08:09:12.109Z,627.00
2023-05-10T08:10:12.188Z,614.00
2023-05-10T08:11:12.085Z,588.00
2023-05-10T08:12:12.095Z,624.00
2023-05-10T08:13:12.085Z,705.00
2023-05-10T08:14:12.192Z,689.00
2023-05-10T08:15:13.198Z,619.00
2023-05-10T08:16:12.289Z,663.00
2023-05-10T08:17:12.327Z,674.00
2023-05-10T08:18:12.385Z,681.00
2023-05-10T08:19:12.415Z,647.00
2023-05-10T08:20:12.439Z,673.00
2023-05-10T08:21:12.496Z,679.00
2023-05-10T08:22:12.445Z,686.00
2023-05-10T08:23:12.439Z,647.00
2023-05-10T08:24:12.482Z,713.00
2023-05-10T08:25:12.474Z,653.00
2023-05-10T08:26:12.484Z,726.00
2023-05-10T08:27:12.490Z,718.00
2023-05-10T08:28:12.535Z,785.00
2023-05-10T08:29:12.533Z,741.00
2023-05-10T08:30:12.593Z,675.00
2023-05-10T08:31:12.612Z,690.00
2023-05-10T08:32:12.641Z,717.00
2023-05-10T08:33:12.650Z,702.00
2023-05-10T08:34:12.562Z,590.00
2023-05-10T08:35:12.634Z,593.00
2023-05-10T08:36:12.600Z,598.00
2023-05-10T08:37:12.636Z,593.00
2023-05-10T08:38:12.672Z,592.00
2023-05-10T08:39:22.862Z,544.00
2023-05-10T08:40:12.717Z,582.00
2023-05-10T08:41:12.723Z,568.00
2023-05-10T08:42:12.745Z,598.00
2023-05-10T08:43:12.726Z,593.00
2023-05-10T08:44:12.753Z,533.00
2023-05-10T08:45:12.757Z,529.00
2023-05-10T08:46:12.756Z,554.00
2023-05-10T08:47:12.822Z,573.00
2023-05-10T08:48:12.809Z,661.00
2023-05-10T08:49:12.717Z,692.00
2023-05-10T08:50:12.741Z,679.00
2023-05-10T08:51:12.725Z,645.00
2023-05-10T08:52:12.730Z,616.00
2023-05-10T08:53:12.761Z,582.00
2023-05-10T08:54:12.739Z,568.00
2023-05-10T08:55:12.827Z,539.00
2023-05-10T08:56:12.786Z,588.00
2023-05-10T08:57:12.772Z,528.00
2023-05-10T08:58:12.791Z,540.00
2023-05-10T08:59:12.781Z,563.00
2023-05-10T09:00:12.951Z,565.00
2023-05-10T09:01:12.960Z,624.00
2023-05-10T09:02:12.959Z,670.00
2023-05-10T09:03:12.959Z,682.00
2023-05-10T09:04:13.064Z,610.00
2023-05-10T09:05:13.022Z,628.00
2023-05-10T09:06:13.001Z,607.00
2023-05-10T09:07:12.992Z,573.00
2023-05-10T09:08:13.060Z,624.00
2023-05-10T09:09:13.045Z,603.00
2023-05-10T09:10:13.068Z,566.00
2023-05-10T09:11:13.058Z,558.00
2023-05-10T09:12:13.074Z,543.00
2023-05-10T09:13:13.107Z,555.00
2023-05-10T09:14:13.206Z,548.00
2023-05-10T09:15:13.214Z,556.00
2023-05-10T09:16:20.938Z,544.00
2023-05-10T09:17:14.259Z,556.00
2023-05-10T09:18:13.395Z,522.00
2023-05-10T09:19:13.390Z,486.00
2023-05-10T09:20:13.495Z,500.00
2023-05-10T09:21:13.297Z,519.00
2023-05-10T09:22:13.229Z,513.00
2023-05-10T09:23:13.250Z,486.00
2023-05-10T09:24:13.230Z,483.00
2023-05-10T09:25:13.245Z,490.00
2023-05-10T09:26:13.305Z,485.00
2023-05-10T09:27:13.363Z,486.00
2023-05-10T09:28:13.233Z,484.00
2023-05-10T09:29:14.669Z,474.00
2023-05-10T09:30:13.213Z,458.00
2023-05-10T09:31:13.334Z,465.00
2023-05-10T09:32:13.785Z,473.00
2023-05-10T09:33:13.243Z,503.00
2023-05-10T09:34:13.242Z,464.00
2023-05-10T09:35:13.253Z,463.00
2023-05-10T09:36:13.320Z,458.00
2023-05-10T09:37:13.274Z,506.00
2023-05-10T09:38:13.392Z,498.00
2023-05-10T09:39:13.359Z,500.00
2023-05-10T09:40:14.160Z,623.00
2023-05-10T09:41:13.446Z,617.00
2023-05-10T09:42:13.516Z,585.00
2023-05-10T09:43:13.501Z,528.00
2023-05-10T09:44:13.548Z,524.00
2023-05-10T09:45:13.628Z,507.00
2023-05-10T09:46:13.686Z,598.00
2023-05-10T09:47:13.615Z,612.00
2023-05-10T09:48:13.711Z,553.00
2023-05-10T09:49:13.796Z,557.00
2023-05-10T09:50:13.899Z,594.00
2023-05-10T09:51:13.897Z,501.00
2023-05-10T09:52:13.866Z,505.00
2023-05-10T09:53:13.873Z,503.00
2023-05-10T09:54:13.916Z,550.00
2023-05-10T09:55:14.083Z,563.00
2023-05-10T09:56:13.899Z,474.00
2023-05-10T09:57:14.214Z,527.00
2023-05-10T09:58:13.884Z,475.00
2023-05-10T09:59:13.871Z,579.00
2023-05-10T10:00:13.895Z,522.00
2023-05-10T10:01:13.938Z,539.00
2023-05-10T10:02:13.983Z,520.00
2023-05-10T10:03:13.881Z,529.00
2023-05-10T10:04:13.938Z,528.00
2023-05-10T10:05:14.010Z,530.00
2023-05-10T10:06:26.457Z,514.00
2023-05-10T10:07:14.951Z,462.00
2023-05-10T10:08:14.067Z,514.00
2023-05-10T10:09:13.936Z,473.00
2023-05-10T10:10:13.930Z,510.00
2023-05-10T10:11:13.959Z,524.00
2023-05-10T10:12:13.927Z,523.00
2023-05-10T10:13:13.950Z,558.00
2023-05-10T10:14:14.069Z,527.00
2023-05-10T10:15:16.507Z,577.00
2023-05-10T10:16:14.050Z,559.00
2023-05-10T10:17:13.944Z,559.00
2023-05-10T10:18:13.915Z,608.00
2023-05-10T10:19:13.907Z,634.00
2023-05-10T10:20:14.253Z,636.00
2023-05-10T10:21:13.922Z,627.00
2023-05-10T10:22:13.914Z,635.00
2023-05-10T10:23:15.831Z,632.00
2023-05-10T10:24:13.888Z,635.00
2023-05-10T10:25:13.938Z,630.00
2023-05-10T10:26:13.886Z,629.00
2023-05-10T10:27:13.892Z,545.00
2023-05-10T10:28:13.891Z,557.00
2023-05-10T10:29:13.918Z,659.00
2023-05-10T10:30:13.975Z,681.00
2023-05-10T10:31:13.879Z,693.00
2023-05-10T10:32:13.860Z,701.00
2023-05-10T10:33:27.243Z,726.00
2023-05-10T10:34:14.859Z,753.00
2023-05-10T10:35:13.844Z,762.00
2023-05-10T10:36:13.849Z,774.00
2023-05-10T10:37:13.854Z,815.00
2023-05-10T10:38:13.810Z,833.00
2023-05-10T10:39:13.853Z,824.00
2023-05-10T10:40:13.777Z,746.00
2023-05-10T10:41:13.779Z,745.00
2023-05-10T10:42:13.776Z,742.00
2023-05-10T10:43:13.847Z,792.00
2023-05-10T10:44:13.737Z,812.00
2023-05-10T10:45:13.899Z,837.00
2023-05-10T10:46:13.726Z,831.00
2023-05-10T10:47:13.715Z,823.00
2023-05-10T10:48:13.710Z,854.00
2023-05-10T10:49:13.724Z,871.00
2023-05-10T10:50:13.706Z,863.00
2023-05-10T10:51:13.660Z,859.00
2023-05-10T10:52:13.663Z,870.00
2023-05-10T10:53:13.674Z,876.00
2023-05-10T10:54:13.679Z,886.00
2023-05-10T10:55:13.634Z,883.00
2023-05-10T10:56:13.659Z,883.00
2023-05-10T10:57:13.599Z,880.00
2023-05-10T10:58:13.589Z,869.00
2023-05-10T10:59:13.576Z,761.00
2023-05-10T11:00:13.576Z,839.00
2023-05-10T11:01:13.633Z,854.00
2023-05-10T11:02:13.586Z,699.00
2023-05-10T11:03:13.633Z,836.00
2023-05-10T11:04:14.046Z,833.00
2023-05-10T11:05:13.718Z,835.00
2023-05-10T11:06:13.723Z,842.00
2023-05-10T11:07:13.759Z,848.00
2023-05-10T11:08:13.756Z,848.00
2023-05-10T11:09:13.725Z,652.00
2023-05-10T11:10:13.716Z,667.00
2023-05-10T11:11:13.725Z,789.00
2023-05-10T11:12:13.812Z,615.00
2023-05-10T11:13:13.704Z,749.00
2023-05-10T11:14:14.570Z,599.00
2023-05-10T11:15:13.692Z,750.00
2023-05-10T11:16:13.691Z,754.00
2023-05-10T11:17:13.739Z,766.00
2023-05-10T11:18:13.710Z,764.00
2023-05-10T11:19:13.799Z,754.00
2023-05-10T11:20:13.729Z,669.00
2023-05-10T11:21:14.052Z,728.00
2023-05-10T11:22:13.612Z,561.00
2023-05-10T11:23:13.674Z,605.00
2023-05-10T11:24:13.725Z,620.00
2023-05-10T11:25:13.628Z,667.00
2023-05-10T11:26:13.615Z,719.00
2023-05-10T11:27:14.229Z,722.00
2023-05-10T11:28:13.616Z,719.00
2023-05-10T11:29:13.622Z,707.00
2023-05-10T11:30:13.841Z,661.00
2023-05-10T11:31:13.733Z,656.00
2023-05-10T11:32:13.779Z,659.00
2023-05-10T11:33:13.731Z,668.00
2023-05-10T11:34:13.797Z,655.00
2023-05-10T11:35:13.765Z,654.00
2023-05-10T11:36:13.798Z,637.00
2023-05-10T11:37:13.818Z,627.00
2023-05-10T11:38:13.814Z,627.00
2023-05-10T11:39:13.851Z,627.00
2023-05-10T11:40:13.891Z,625.00
2023-05-10T11:41:13.888Z,627.00
2023-05-10T11:42:13.886Z,627.00
2023-05-10T11:43:13.877Z,627.00
2023-05-10T11:44:13.893Z,627.00
2023-05-10T11:45:13.893Z,624.00
2023-05-10T11:46:13.937Z,622.00
2023-05-10T11:47:13.919Z,622.00
2023-05-10T11:48:13.925Z,621.00
2023-05-10T11:49:13.884Z,618.00
2023-05-10T11:50:14.003Z,615.00
2023-05-10T11:51:13.881Z,613.00
2023-05-10T11:52:13.872Z,608.00
2023-05-10T11:53:13.953Z,604.00
2023-05-10T11:54:13.870Z,602.00
2023-05-10T11:55:13.879Z,601.00
2023-05-10T11:56:13.839Z,600.00
2023-05-10T11:57:13.992Z,599.00
2023-05-10T11:58:13.855Z,598.00
2023-05-10T11:59:13.840Z,598.00
2023-05-10T12:00:13.927Z,596.00
2023-05-10T12:01:13.849Z,595.00
2023-05-10T12:02:13.819Z,593.00
2023-05-10T12:03:13.978Z,595.00
2023-05-10T12:04:14.043Z,594.00
2023-05-10T12:05:13.815Z,594.00
2023-05-10T12:06:14.191Z,593.00
2023-05-10T12:07:13.828Z,591.00
2023-05-10T12:08:13.820Z,589.00
2023-05-10T12:09:13.791Z,589.00
2023-05-10T12:10:13.862Z,587.00
2023-05-10T12:11:13.826Z,586.00
2023-05-10T12:12:13.781Z,579.00
2023-05-10T12:13:13.763Z,576.00
2023-05-10T12:14:14.758Z,576.00
2023-05-10T12:15:13.932Z,578.00
2023-05-10T12:16:13.833Z,577.00
2023-05-10T12:17:13.767Z,572.00
2023-05-10T12:18:13.809Z,568.00
2023-05-10T12:19:13.799Z,565.00
2023-05-10T12:20:13.828Z,562.00
2023-05-10T12:21:13.809Z,560.00
2023-05-10T12:22:13.766Z,560.00
2023-05-10T12:23:13.793Z,559.00
2023-05-10T12:24:13.831Z,556.00
2023-05-10T12:25:13.805Z,554.00
2023-05-10T12:26:13.839Z,555.00
2023-05-10T12:27:13.909Z,556.00